Latest Weather Observations for Keith West

IDS60801

Issued at 8:31 pm CDT Tuesday 28 March 2017 (issued every 30 minutes, with the page automatically refreshed every 10 minutes)

About weather observations | Map of weather stations | Latest weather observations for SA | Other Formats
Station Details ID: 025557 Name: MUNKORA Lat: -36.11 Lon: 140.33 Height: 27.0 m
Data from the previous 72 hours. | See also: Recent months at Keith West
Date/Time
CDT
Temp
°C
App
Temp
°C
Dew
Point
°C
Rel
Hum
%
Delta-T
°C
Wind Press
QNH
hPa
Press
MSL
hPa
Rain since
9am
mm
Dir  Spd
km/h
Gust
km/h
Spd
kts
Gust
kts
28/08:00pm 17.1 16.2 10.7 66 3.4 SSW 6 9 3 5 1012.3 1012.2 0.0
28/07:30pm 17.8 15.9 10.4 62 4.0 WSW 11 13 6 7 1012.2 1012.1 0.0
28/07:00pm 19.6 17.0 10.6 56 4.9 SW 15 19 8 10 1012.1 1012.0 0.0
28/06:30pm 21.3 18.6 10.2 49 6.0 SW 15 19 8 10 1012.0 1011.9 0.0
28/06:00pm 22.4 20.0 9.9 45 6.8 WSW 13 19 7 10 1012.1 1012.0 0.0
28/05:30pm 23.2 20.2 9.2 41 7.5 W 15 24 8 13 1012.0 1011.9 0.0
28/05:00pm 23.6 20.3 8.1 37 8.2 W 15 24 8 13 1012.2 1012.1 0.0
28/04:30pm 23.8 20.2 8.2 37 8.3 WSW 17 28 9 15 1012.3 1012.2 0.0
28/04:00pm 23.4 18.7 7.9 37 8.2 W 22 32 12 17 1012.4 1012.3 0.0
28/03:30pm 23.5 19.3 8.4 38 8.0 W 20 30 11 16 1012.7 1012.6 0.0
28/03:00pm 23.7 18.4 6.9 34 8.7 W 24 33 13 18 1013.1 1013.0 0.0
28/02:30pm 23.8 19.5 7.8 36 8.4 W 20 30 11 16 1013.2 1013.1 0.0
28/02:00pm 23.1 18.4 7.6 37 8.1 WNW 22 32 12 17 1013.6 1013.5 0.0
28/01:30pm 23.3 18.3 8.2 38 8.0 WNW 24 37 13 20 1014.0 1013.9 0.0
28/01:00pm 23.6 18.6 8.1 37 8.2 W 24 39 13 21 1014.4 1014.3 0.0
28/12:30pm 22.8 18.0 8.9 41 7.4 NW 24 35 13 19 1014.9 1014.8 0.0
28/12:00pm 22.0 18.2 9.9 46 6.6 WNW 20 30 11 16 1015.2 1015.1 0.0
28/11:30am 20.7 17.7 10.5 52 5.5 W 17 26 9 14 1015.5 1015.4 0.0
28/11:00am 20.3 16.7 9.8 51 5.6 WNW 19 28 10 15 1015.7 1015.6 0.0
28/10:30am 20.2 17.0 10.0 52 5.5 WNW 17 26 9 14 1015.8 1015.7 0.0
28/10:00am 19.2 17.1 11.0 59 4.5 WNW 13 19 7 10 1015.6 1015.5 0.0
28/09:30am 17.6 16.0 11.6 68 3.3 NW 11 17 6 9 1015.5 1015.4 0.0
28/09:00am 15.9 15.0 12.5 80 1.9 NNW 9 13 5 7 1015.3 1015.2 1.0
28/08:30am 13.6 13.0 12.3 92 0.7 N 7 9 4 5 1015.3 1015.2 1.0
28/08:00am 10.7 9.5 9.5 92 0.6 NNW 6 7 3 4 1014.9 1014.8 1.0
28/07:30am 10.2 8.8 9.0 92 0.6 N 6 6 3 3 1014.8 1014.7 1.0
28/07:00am 10.4 8.5 9.0 91 0.7 N 9 9 5 5 1014.7 1014.6 1.0
28/06:30am 10.5 9.1 8.9 90 0.8 NNW 6 7 3 4 1014.9 1014.8 1.0
28/06:00am 11.3 9.9 9.7 90 0.8 NW 7 9 4 5 1014.9 1014.8 1.0
28/05:30am 12.4 11.5 10.5 88 1.0 NNW 6 7 3 4 1014.7 1014.6 1.0
28/05:00am 12.5 11.4 10.6 88 1.0 N 7 9 4 5 1014.7 1014.6 1.0
28/04:30am 13.7 12.9 11.6 87 1.1 NNW 7 9 4 5 1015.0 1014.9 1.0
28/04:00am 13.7 12.9 11.6 87 1.1 N 7 9 4 5 1015.0 1014.9 1.0
28/03:30am 14.0 13.3 12.0 88 1.1 NNW 7 9 4 5 1015.1 1015.0 1.0
28/03:00am 13.5 12.3 11.7 89 1.0 N 9 11 5 6 1015.2 1015.1 1.0
28/02:30am 13.0 12.2 11.6 91 0.7 N 7 7 4 4 1015.3 1015.2 1.0
28/02:00am 11.8 10.8 10.4 91 0.7 N 6 7 3 4 1015.5 1015.4 1.0
28/01:30am 11.8 10.2 10.2 90 0.8 N 9 11 5 6 1015.6 1015.5 1.0
28/01:00am 11.1 9.7 9.7 91 0.7 N 7 7 4 4 1015.6 1015.5 1.0
28/12:30am 10.5 8.9 8.8 89 0.8 NNW 7 9 4 5 1015.5 1015.4 1.0
28/12:00am 10.4 8.8 8.7 89 0.8 NNW 7 9 4 5 1015.4 1015.3 1.0
 
Date/Time
CDT
Temp
°C
App
Temp
°C
Dew
Point
°C
Rel
Hum
%
Delta-T
°C
Wind Press
QNH
hPa
Press
MSL
hPa
Rain since
9am
mm
Dir  Spd
km/h
Gust
km/h
Spd
kts
Gust
kts
27/11:30pm 10.7 9.2 9.0 89 0.8 NNW 7 7 4 4 1015.5 1015.4 1.0
27/11:00pm 10.5 8.9 8.6 88 0.9 N 7 9 4 5 1015.2 1015.1 1.0
27/10:30pm 10.8 9.7 8.4 85 1.2 WNW 4 6 2 3 1015.2 1015.1 1.0
27/10:00pm 11.2 9.7 8.6 84 1.3 WNW 6 6 3 3 1015.2 1015.1 1.0
27/09:30pm 11.4 9.7 8.4 82 1.5 WNW 7 7 4 4 1015.3 1015.2 1.0
27/09:00pm 13.0 11.7 9.3 78 1.9 W 6 7 3 4 1015.0 1014.9 1.0
27/08:30pm 14.7 13.6 9.9 73 2.5 WSW 6 7 3 4 1014.8 1014.7 1.0
27/08:00pm 16.1 14.6 10.6 70 2.9 WSW 9 13 5 7 1014.7 1014.6 1.0
27/07:30pm 17.1 15.6 10.5 65 3.5 WSW 9 15 5 8 1014.4 1014.3 1.0
27/07:00pm 18.6 15.5 10.2 58 4.5 WSW 17 22 9 12 1014.1 1014.0 1.0
27/06:30pm 19.6 14.7 9.8 53 5.2 WSW 26 35 14 19 1013.9 1013.8 1.0
27/06:00pm 21.1 15.8 10.0 49 6.0 WSW 28 41 15 22 1013.5 1013.4 1.0
27/05:30pm 21.3 15.4 9.2 46 6.5 WSW 30 41 16 22 1013.3 1013.2 1.0
27/05:13pm 22.3 16.8 9.1 43 7.1 WSW 28 50 15 27 1013.0 1012.9 1.0
27/05:00pm 22.0 15.5 8.2 41 7.3 WSW 32 43 17 23 1013.2 1013.1 1.0
27/04:30pm 22.4 16.0 8.5 41 7.4 WSW 32 44 17 24 1013.0 1012.9 1.0
27/04:00pm 23.5 17.2 7.6 36 8.3 WSW 30 39 16 21 1012.9 1012.8 1.0
27/03:30pm 23.4 16.2 4.9 30 9.2 WSW 32 43 17 23 1012.8 1012.7 1.0
27/03:00pm 23.7 16.3 5.1 30 9.3 W 33 48 18 26 1012.6 1012.5 1.0
27/02:30pm 23.6 16.8 9.2 40 7.8 W 35 52 19 28 1012.7 1012.6 1.0
27/02:00pm 23.4 18.6 11.5 47 6.7 W 28 41 15 22 1012.9 1012.8 1.0
27/01:30pm 22.9 17.4 11.9 50 6.2 W 32 48 17 26 1013.2 1013.1 1.0
27/01:00pm 20.5 17.0 13.5 64 4.0 WSW 24 35 13 19 1013.2 1013.1 1.0
27/12:30pm 18.9 15.5 13.7 72 3.0 W 24 33 13 18 1013.6 1013.5 1.0
27/12:00pm 17.9 15.4 13.4 75 2.5 SW 19 24 10 13 1013.4 1013.3 1.0
27/11:30am 17.4 14.5 12.9 75 2.5 WSW 20 30 11 16 1013.4 1013.3 0.8
27/11:00am 19.7 13.2 9.0 50 5.6 WSW 33 46 18 25 1012.7 1012.6 0.0
27/10:44am 21.2 14.7 10.4 50 5.9 WSW 35 56 19 30 1012.4 1012.3 0.0
27/10:30am 21.4 13.4 10.3 49 6.0 WSW 43 57 23 31 1012.1 1012.0 0.0
27/10:00am 21.0 14.7 12.4 58 4.9 WSW 37 48 20 26 1011.5 1011.4 0.0
27/09:30am 21.2 15.6 12.1 56 5.1 WSW 33 50 18 27 1010.4 1010.3 0.0
27/09:00am 21.3 16.7 14.5 65 4.0 WSW 32 39 17 21 1009.7 1009.6 0.0
27/08:30am 21.0 17.8 15.3 70 3.4 W 26 33 14 18 1009.0 1008.9 0.0
27/08:00am 20.0 18.3 15.8 77 2.5 W 19 26 10 14 1008.2 1008.1 0.0
27/07:30am 20.0 18.1 16.6 81 2.1 W 22 33 12 18 1007.6 1007.5 0.0
27/07:00am 20.4 17.0 16.8 80 2.2 W 30 43 16 23 1006.9 1006.8 0.0
27/06:30am 21.6 15.9 16.3 72 3.2 W 41 61 22 33 1005.6 1005.5 0.0
27/06:24am 22.8 17.0 15.9 65 4.2 W 41 61 22 33 1005.2 1005.1 0.0
27/06:15am 26.3 21.1 13.4 45 7.6 NW 33 50 18 27 1004.6 1004.5 0.0
27/06:00am 28.0 23.4 11.1 35 9.7 NNW 26 35 14 19 1003.8 1003.7 0.0
27/05:30am 28.9 22.3 11.5 34 10.1 N 37 52 20 28 1002.7 1002.6 0.0
27/05:00am 28.2 22.1 11.7 36 9.5 N 35 46 19 25 1001.7 1001.6 0.0
27/04:32am 28.0 22.0 12.0 37 9.3 NNE 35 54 19 29 1001.7 1001.6 0.0
27/04:30am 27.8 22.2 12.2 38 9.1 NNE 33 48 18 26 1001.8 1001.7 0.0
27/04:00am 28.3 21.8 11.8 36 9.5 NNE 37 48 20 26 1002.1 1002.0 0.0
27/03:52am 28.1 22.1 12.0 36 9.3 NNE 35 56 19 30 1002.2 1002.1 0.0
27/03:30am 28.0 22.7 12.4 38 9.1 NNE 32 44 17 24 1002.6 1002.5 0.0
27/03:00am 27.3 22.4 12.5 40 8.6 NNE 30 43 16 23 1003.2 1003.1 0.0
27/02:30am 27.3 22.4 12.5 40 8.6 NNE 30 44 16 24 1003.7 1003.6 0.0
27/02:00am 27.3 22.4 12.5 40 8.6 NNE 30 39 16 21 1004.2 1004.1 0.0
27/01:30am 27.8 22.9 12.6 39 8.9 NNE 30 43 16 23 1004.6 1004.5 0.0
27/01:00am 27.1 22.4 13.1 42 8.2 NE 30 39 16 21 1004.9 1004.8 0.0
27/12:30am 27.3 23.3 12.9 41 8.5 NE 26 39 14 21 1005.6 1005.5 0.0
27/12:00am 27.6 22.7 12.4 39 8.9 NE 30 41 16 22 1006.2 1006.1 0.0
 
Date/Time
CDT
Temp
°C
App
Temp
°C
Dew
Point
°C
Rel
Hum
%
Delta-T
°C
Wind Press
QNH
hPa
Press
MSL
hPa
Rain since
9am
mm
Dir  Spd
km/h
Gust
km/h
Spd
kts
Gust
kts
26/11:30pm 27.2 23.9 12.8 41 8.4 NE 22 32 12 17 1006.8 1006.7 0.0
26/11:00pm 26.5 23.6 12.9 43 7.9 NE 20 28 11 15 1007.4 1007.3 0.0
26/10:30pm 26.7 23.5 13.1 43 8.0 ENE 22 30 12 16 1007.8 1007.7 0.0
26/10:00pm 27.0 24.3 13.4 43 8.0 ENE 20 30 11 16 1008.1 1008.0 0.0
26/09:30pm 26.9 24.8 13.6 44 7.9 ENE 17 24 9 13 1008.5 1008.4 0.0
26/09:00pm 26.9 24.7 14.3 46 7.6 ENE 19 28 10 15 1008.2 1008.1 0.0
26/08:30pm 26.3 25.3 14.7 48 7.0 ENE 13 19 7 10 1008.5 1008.4 0.0
26/08:00pm 26.1 25.2 14.9 50 6.7 ENE 13 17 7 9 1008.5 1008.4 0.0
26/07:30pm 26.4 25.1 14.8 49 7.0 ENE 15 20 8 11 1008.5 1008.4 0.0
26/07:00pm 27.0 25.8 15.1 48 7.2 ENE 15 19 8 10 1008.7 1008.6 0.0
26/06:30pm 27.2 26.7 14.9 47 7.4 ENE 11 13 6 7 1009.0 1008.9 0.0
26/06:00pm 27.7 27.6 15.0 45 7.7 NE 9 13 5 7 1009.4 1009.3 0.0
26/05:30pm 27.7 27.1 14.7 45 7.9 NE 11 17 6 9 1009.5 1009.4 0.0
26/05:00pm 27.8 27.4 15.1 46 7.7 NE 11 15 6 8 1009.7 1009.6 0.0
26/04:30pm 27.5 27.2 14.5 45 7.8 ENE 9 15 5 8 1009.9 1009.8 0.0
26/04:00pm 27.3 27.5 14.7 46 7.6 NE 7 15 4 8 1010.4 1010.3 0.0
26/03:30pm 26.9 26.7 14.6 46 7.4 NE 9 13 5 7 1010.5 1010.4 0.0
26/03:00pm 26.8 26.5 14.5 46 7.4 NNE 9 13 5 7 1011.3 1011.2 0.0
26/02:30pm 26.2 26.9 14.6 48 7.0 NE 4 7 2 4 1011.2 1011.1 0.0
26/02:00pm 26.5 26.7 14.6 48 7.1 NNW 7 13 4 7 1012.4 1012.3 0.0
26/01:30pm 26.7 26.9 14.1 46 7.5 NNE 6 15 3 8 1012.7 1012.6 0.0
26/01:00pm 25.9 26.3 14.7 50 6.7 NNE 6 9 3 5 1012.6 1012.5 0.0
26/12:30pm 26.1 25.3 13.9 47 7.2 NNE 11 17 6 9 1013.0 1012.9 0.0
26/12:00pm 25.1 24.9 14.6 52 6.3 NE 9 15 5 8 1013.2 1013.1 0.0
26/11:30am 23.4 23.1 14.4 57 5.3 NNE 9 15 5 8 1013.7 1013.6 0.0
26/11:00am 22.4 22.1 15.5 65 4.1 NE 11 17 6 9 1013.9 1013.8 0.0
26/10:30am 20.4 19.6 15.0 71 3.2 E 13 19 7 10 1014.0 1013.9 0.0
26/10:00am 18.3 17.8 14.8 80 2.0 ESE 11 15 6 8 1014.3 1014.2 0.0
26/09:30am 17.1 17.0 14.9 87 1.3 ESE 9 13 5 7 1014.6 1014.5 0.0
26/09:00am 16.4 15.9 14.8 90 0.9 ESE 11 15 6 8 1014.2 1014.1 0.0
26/08:30am 15.6 15.3 14.3 92 0.7 SE 9 13 5 7 1014.3 1014.2 0.0
26/08:00am 14.8 14.8 13.7 93 0.6 SSE 6 7 3 4 1014.5 1014.4 0.0
26/07:30am 14.5 14.5 13.5 94 0.6 ESE 6 7 3 4 1013.7 1013.6 0.0
26/07:00am 13.9 14.4 12.8 93 0.6 S 2 6 1 3 1013.8 1013.7 0.0
26/06:30am 13.4 14.1 12.3 93 0.6 CALM 0 0 0 0 1013.4 1013.3 0.0
26/06:00am 13.4 14.1 12.3 93 0.6 CALM 0 2 0 1 1013.3 1013.2 0.0
26/05:30am 12.9 12.7 11.8 93 0.6 SSE 4 6 2 3 1013.0 1012.9 0.0
26/05:00am 13.3 14.0 12.2 93 0.6 CALM 0 0 0 0 1013.2 1013.1 0.0
26/04:30am 13.4 13.0 12.3 93 0.6 SSE 6 6 3 3 1013.0 1012.9 0.0
26/04:00am 13.5 13.0 12.2 92 0.7 S 6 6 3 3 1013.0 1012.9 0.0
26/03:30am 14.4 14.3 13.3 93 0.6 S 6 7 3 4 1013.4 1013.3 0.0
26/03:00am 14.5 14.4 13.4 93 0.6 SSW 6 9 3 5 1013.6 1013.5 0.0
26/02:30am 14.3 14.0 13.2 93 0.6 SW 7 9 4 5 1014.0 1013.9 0.0
26/02:00am 13.8 13.3 12.5 92 0.7 W 7 7 4 4 1014.4 1014.3 0.0
26/01:30am 13.6 13.2 12.3 92 0.7 SW 6 7 3 4 1014.4 1014.3 0.0
26/01:00am 13.2 13.7 11.6 90 0.9 CALM 0 0 0 0 1014.2 1014.1 0.0
26/12:30am 13.6 14.2 12.0 90 0.9 CALM 0 0 0 0 1014.3 1014.2 0.0
26/12:00am 14.5 15.3 12.5 88 1.1 CALM 0 0 0 0 1014.6 1014.5 0.0
 
Date/Time
CDT
Temp
°C
App
Temp
°C
Dew
Point
°C
Rel
Hum
%
Delta-T
°C
Wind Press
QNH
hPa
Press
MSL
hPa
Rain since
9am
mm
Dir  Spd
km/h
Gust
km/h
Spd
kts
Gust
kts
25/11:30pm 16.2 17.2 14.4 89 1.0 S 2 4 1 2 1014.7 1014.6 0.0
25/11:00pm 16.1 16.3 14.1 88 1.1 SSW 6 7 3 4 1014.7 1014.6 0.0
25/10:30pm 16.7 16.8 14.5 87 1.3 SW 7 9 4 5 1014.8 1014.7 0.0
25/10:00pm 17.2 17.0 14.7 85 1.4 SW 9 13 5 7 1014.9 1014.8 0.0
25/09:30pm 17.6 17.0 14.7 83 1.7 SW 11 15 6 8 1014.9 1014.8 0.0
25/09:00pm 17.9 18.1 14.6 81 1.9 WSW 7 11 4 6 1014.7 1014.6 0.0

Other Formats:

Comma delimited format used in spreadsheet applications
http://www.bom.gov.au/fwo/IDS60801/IDS60801.95815.axf

JavaScript Object Notation format (JSON) in row-major order
http://www.bom.gov.au/fwo/IDS60801/IDS60801.95815.json